Time;durP1;ratioP1;P1;durP2;ratioP2;P2;SDS_P1;SDS_P2;PMS_P1;PMS_P2;Temp;Humidity;BMP_temperature;BMP_pressure;BME280_temperature;BME280_humidity;BME280_pressure;Samples;Min_cycle;Max_cycle;Signal;HPM_P1;HPM_P2
2022/01/05 00:01:11;;;;;;;8.02;4.13;;;18.10;62.70;;;;;;4987468;28;20017;-57
2022/01/05 00:03:37;;;;;;;8.63;4.75;;;18.10;62.70;;;;;;4981415;28;20034;-59
2022/01/05 00:06:02;;;;;;;5.50;4.28;;;18.10;62.70;;;;;;4982114;28;20726;-58
2022/01/05 00:08:28;;;;;;;6.82;3.83;;;18.10;62.60;;;;;;4981630;28;20058;-58
2022/01/05 00:10:53;;;;;;;5.43;4.00;;;18.10;62.60;;;;;;4980844;28;20038;-57
2022/01/05 00:13:19;;;;;;;7.65;4.70;;;18.10;62.60;;;;;;4966327;28;20524;-57
2022/01/05 00:15:45;;;;;;;8.57;3.70;;;18.10;62.50;;;;;;4985628;28;20046;-55
2022/01/05 00:18:11;;;;;;;6.15;3.83;;;18.10;62.50;;;;;;4984372;28;20026;-56
2022/01/05 00:20:36;;;;;;;6.65;3.55;;;18.10;62.50;;;;;;4985424;28;20405;-58
2022/01/05 00:23:02;;;;;;;6.05;3.15;;;18.10;62.40;;;;;;4991998;28;20073;-56
2022/01/05 00:25:27;;;;;;;7.40;3.53;;;18.10;62.40;;;;;;4986159;28;20066;-55
2022/01/05 00:27:53;;;;;;;7.57;3.83;;;18.10;62.40;;;;;;4983745;28;20736;-59
2022/01/05 00:30:18;;;;;;;4.75;3.00;;;18.10;62.30;;;;;;4984581;28;20034;-58
2022/01/05 00:32:44;;;;;;;6.32;3.15;;;18.10;62.20;;;;;;4991353;28;20042;-56
2022/01/05 00:35:10;;;;;;;5.10;3.22;;;18.10;62.20;;;;;;4983687;28;20026;-59
2022/01/05 00:37:36;;;;;;;7.63;5.38;;;18.10;62.20;;;;;;4967888;28;20026;-55
2022/01/05 00:40:03;;;;;;;3.50;2.85;;;18.10;62.30;;;;;;4984578;28;20821;-56
2022/01/05 00:42:29;;;;;;;3.92;2.70;;;18.10;62.30;;;;;;4986902;28;20054;-55
2022/01/05 00:44:55;;;;;;;5.93;3.58;;;18.10;62.20;;;;;;4969267;28;20026;-52
2022/01/05 00:47:20;;;;;;;5.78;2.75;;;18.10;62.20;;;;;;4975946;28;20046;-54
2022/01/05 00:49:46;;;;;;;4.65;3.30;;;18.10;62.20;;;;;;4966043;28;20023;-58
2022/01/05 00:52:12;;;;;;;5.70;2.80;;;18.00;62.10;;;;;;4987303;28;20030;-59
2022/01/05 00:54:37;;;;;;;3.83;2.58;;;18.10;62.20;;;;;;4983245;28;20548;-59
2022/01/05 00:57:03;;;;;;;4.97;2.47;;;18.00;62.10;;;;;;4978414;28;20027;-54
2022/01/05 00:59:29;;;;;;;3.60;2.40;;;18.00;62.20;;;;;;4981906;28;20030;-56
2022/01/05 01:01:54;;;;;;;4.90;2.83;;;18.00;62.20;;;;;;4985341;28;20609;-58
2022/01/05 01:04:20;;;;;;;4.53;2.40;;;18.00;62.20;;;;;;4973487;28;20120;-58
2022/01/05 01:06:45;;;;;;;4.05;2.08;;;18.00;62.10;;;;;;4981738;28;20117;-58
2022/01/05 01:09:11;;;;;;;3.75;2.42;;;18.00;62.20;;;;;;4980687;28;20513;-56
2022/01/05 01:11:36;;;;;;;3.25;1.90;;;18.00;62.20;;;;;;4982990;28;20054;-53
2022/01/05 01:14:02;;;;;;;4.25;2.17;;;18.00;62.10;;;;;;4985057;28;20034;-55
2022/01/05 01:16:27;;;;;;;3.28;2.00;;;18.00;62.10;;;;;;4984369;28;20485;-57
2022/01/05 01:18:53;;;;;;;3.85;2.25;;;18.00;62.20;;;;;;4985270;28;20117;-58
2022/01/05 01:21:18;;;;;;;3.40;2.20;;;18.00;62.10;;;;;;4983791;28;20397;-57
2022/01/05 01:23:54;;;;;;;4.25;2.25;;;18.00;62.10;;;;;;4982143;28;20038;-56
2022/01/05 01:26:19;;;;;;;2.97;1.73;;;18.00;62.10;;;;;;4984117;28;20453;-55
2022/01/05 01:28:45;;;;;;;4.28;1.85;;;18.00;62.00;;;;;;4980616;28;20062;-55
2022/01/05 01:31:10;;;;;;;2.60;1.80;;;18.00;62.10;;;;;;4984617;28;20035;-55
2022/01/05 01:33:36;;;;;;;3.63;2.15;;;18.00;62.10;;;;;;4980835;28;20382;-58
2022/01/05 01:36:01;;;;;;;3.35;1.92;;;18.00;62.00;;;;;;4984145;28;20026;-52
2022/01/05 01:38:27;;;;;;;1.80;1.23;;;18.00;62.00;;;;;;4982967;28;20053;-58
2022/01/05 01:40:52;;;;;;;3.78;1.92;;;18.00;62.00;;;;;;4984271;28;20087;-57
2022/01/05 01:43:18;;;;;;;2.63;1.58;;;18.00;62.10;;;;;;4979022;28;20026;-56
2022/01/05 01:45:43;;;;;;;2.40;1.60;;;18.00;62.00;;;;;;4981613;28;20038;-57
2022/01/05 01:48:09;;;;;;;2.78;1.48;;;18.00;62.00;;;;;;4962753;28;20042;-56
2022/01/05 01:50:34;;;;;;;2.95;1.60;;;18.00;61.90;;;;;;4981299;28;20039;-58
2022/01/05 01:53:00;;;;;;;1.83;1.23;;;18.00;61.90;;;;;;4981582;28;20674;-54
2022/01/05 01:55:26;;;;;;;2.50;1.60;;;18.00;61.80;;;;;;4984121;28;20061;-51
2022/01/05 01:57:51;;;;;;;2.03;1.23;;;18.10;61.90;;;;;;4983606;28;20030;-54
2022/01/05 02:00:17;;;;;;;2.08;1.17;;;18.00;61.80;;;;;;4969495;28;20126;-54
2022/01/05 02:02:45;;;;;;;3.33;1.45;;;18.10;61.90;;;;;;4982635;28;20057;-56
2022/01/05 02:05:10;;;;;;;1.88;1.25;;;18.00;61.80;;;;;;4983564;28;20080;-58
2022/01/05 02:07:36;;;;;;;1.77;1.08;;;18.00;61.80;;;;;;4980242;28;20460;-52
2022/01/05 02:10:04;;;;;;;2.25;1.30;;;18.00;61.80;;;;;;4984438;28;20616;-52
2022/01/05 02:12:29;;;;;;;2.13;1.15;;;18.00;61.80;;;;;;4982198;28;20036;-52
2022/01/05 02:14:55;;;;;;;1.83;1.40;;;18.00;61.80;;;;;;4986986;28;20031;-55
2022/01/05 02:17:24;;;;;;;1.60;1.20;;;18.00;61.80;;;;;;4983445;28;20034;-57
2022/01/05 02:19:50;;;;;;;1.60;1.33;;;18.00;61.80;;;;;;4980125;28;20885;-54
2022/01/05 02:22:16;;;;;;;1.55;1.10;;;18.00;61.90;;;;;;4983801;28;20026;-52
2022/01/05 02:24:47;;;;;;;1.70;0.95;;;17.90;61.80;;;;;;4980035;28;20414;-53
2022/01/05 02:27:14;;;;;;;1.75;1.15;;;18.00;61.90;;;;;;4983723;28;20406;-53
2022/01/05 02:29:39;;;;;;;1.40;0.90;;;17.90;61.90;;;;;;4984031;28;20551;-57
2022/01/05 02:32:05;;;;;;;1.77;1.00;;;17.90;61.90;;;;;;4983675;28;20106;-53
2022/01/05 02:34:31;;;;;;;1.40;1.00;;;17.90;61.90;;;;;;4979830;28;20031;-54
2022/01/05 02:36:56;;;;;;;1.77;1.00;;;17.90;61.90;;;;;;4983928;28;20030;-54
2022/01/05 02:39:22;;;;;;;1.48;1.00;;;17.90;61.90;;;;;;4982678;28;20022;-58
2022/01/05 02:41:47;;;;;;;1.95;0.93;;;17.90;61.80;;;;;;4983497;28;20062;-55
2022/01/05 02:44:13;;;;;;;1.08;0.80;;;17.90;61.80;;;;;;4986375;28;20528;-56
2022/01/05 02:46:38;;;;;;;1.30;0.77;;;17.90;61.80;;;;;;4983179;28;20092;-54
2022/01/05 02:49:04;;;;;;;1.23;1.05;;;17.90;61.90;;;;;;4981802;28;20034;-57
2022/01/05 02:51:30;;;;;;;1.55;0.70;;;17.90;61.90;;;;;;4982824;28;20278;-57
2022/01/05 02:53:55;;;;;;;1.98;1.00;;;17.90;61.90;;;;;;4984273;28;20041;-54
2022/01/05 02:56:21;;;;;;;3.20;1.17;;;17.90;61.90;;;;;;4982808;28;20039;-56
2022/01/05 02:58:46;;;;;;;1.30;0.80;;;17.90;61.90;;;;;;4983396;28;20478;-57
2022/01/05 03:01:12;;;;;;;2.00;0.70;;;17.80;61.90;;;;;;4985165;28;20030;-54
2022/01/05 03:03:37;;;;;;;1.17;1.00;;;17.80;61.90;;;;;;4980171;28;20038;-52
2022/01/05 03:06:03;;;;;;;1.92;0.98;;;17.90;62.00;;;;;;4980943;28;20038;-56
2022/01/05 03:08:28;;;;;;;2.15;0.80;;;17.90;62.00;;;;;;4980389;28;20049;-55
2022/01/05 03:10:55;;;;;;;1.15;0.75;;;17.90;61.90;;;;;;4985940;28;20109;-57
2022/01/05 03:13:23;;;;;;;1.30;0.70;;;17.90;61.90;;;;;;4978521;28;20022;-58
2022/01/05 03:15:49;;;;;;;0.90;0.70;;;17.90;61.90;;;;;;4982276;28;20065;-58
2022/01/05 03:18:14;;;;;;;0.80;0.57;;;17.80;61.80;;;;;;4980105;28;20445;-57
2022/01/05 03:20:40;;;;;;;0.95;0.68;;;17.80;61.80;;;;;;4981096;28;20034;-52
2022/01/05 03:23:05;;;;;;;1.45;0.63;;;17.90;61.90;;;;;;4981261;28;20053;-57
2022/01/05 03:25:31;;;;;;;0.82;0.50;;;17.80;61.80;;;;;;4982846;28;20042;-54
2022/01/05 03:27:57;;;;;;;1.38;0.80;;;17.90;61.80;;;;;;4978021;28;20238;-62
2022/01/05 03:30:25;;;;;;;1.38;0.65;;;17.80;61.80;;;;;;4964898;28;20039;-54
2022/01/05 03:35:34;;;;;;;1.58;0.60;;;17.80;61.70;;;;;;4970333;28;20035;-55
2022/01/05 03:37:59;;;;;;;2.22;0.70;;;17.80;61.70;;;;;;4978263;28;20137;-58
2022/01/05 03:40:25;;;;;;;0.75;0.70;;;17.80;61.70;;;;;;4981633;28;20117;-55
2022/01/05 03:42:51;;;;;;;0.73;0.60;;;17.90;61.70;;;;;;4979193;28;20034;-58
2022/01/05 03:45:16;;;;;;;1.02;0.60;;;17.90;61.70;;;;;;4981849;28;20038;-55
2022/01/05 03:47:42;;;;;;;2.05;0.70;;;17.80;61.60;;;;;;4984618;28;20038;-55
2022/01/05 03:50:07;;;;;;;0.50;0.30;;;17.80;61.60;;;;;;5001892;23;21301;-63
2022/01/05 03:52:33;;;;;;;0.98;0.57;;;17.80;61.60;;;;;;4986969;28;20027;-63
2022/01/05 03:54:59;;;;;;;0.73;0.35;;;17.80;61.50;;;;;;4990644;28;20046;-63
2022/01/05 03:57:25;;;;;;;1.05;0.57;;;17.80;61.50;;;;;;4989261;28;20827;-64
2022/01/05 03:59:50;;;;;;;0.52;0.43;;;17.80;61.50;;;;;;4996391;28;20021;-64
2022/01/05 04:02:16;;;;;;;0.60;0.47;;;17.80;61.50;;;;;;4983981;28;20061;-63
2022/01/05 04:04:41;;;;;;;1.42;0.57;;;17.80;61.50;;;;;;4988439;28;20026;-63
2022/01/05 04:07:08;;;;;;;0.60;0.35;;;17.80;61.50;;;;;;4986777;28;20034;-64
2022/01/05 04:09:34;;;;;;;1.10;0.50;;;17.80;61.50;;;;;;4988571;28;20034;-62
2022/01/05 04:11:59;;;;;;;0.65;0.60;;;17.80;61.50;;;;;;4992899;28;20030;-62
2022/01/05 04:14:25;;;;;;;1.25;0.40;;;17.80;61.50;;;;;;4988685;28;20061;-63
2022/01/05 04:16:50;;;;;;;0.50;0.40;;;17.80;61.50;;;;;;4994562;28;20630;-62
2022/01/05 04:19:16;;;;;;;0.57;0.50;;;17.80;61.60;;;;;;4989457;28;20154;-63
2022/01/05 04:21:41;;;;;;;0.32;0.25;;;17.80;61.50;;;;;;4989439;28;20030;-64
2022/01/05 04:24:07;;;;;;;0.98;0.50;;;17.80;61.50;;;;;;4989613;28;20541;-64
2022/01/05 04:26:32;;;;;;;0.70;0.40;;;17.80;61.60;;;;;;4991397;28;20299;-63
2022/01/05 04:28:58;;;;;;;1.70;0.30;;;17.80;61.60;;;;;;4989228;28;20030;-64
2022/01/05 04:31:23;;;;;;;0.50;0.40;;;17.80;61.60;;;;;;4989556;28;20510;-63
2022/01/05 04:33:49;;;;;;;0.30;0.28;;;17.80;61.60;;;;;;4988722;28;20027;-63
2022/01/05 04:36:14;;;;;;;0.77;0.60;;;17.80;61.60;;;;;;4990683;28;20042;-63
2022/01/05 04:38:40;;;;;;;0.60;0.38;;;17.70;61.60;;;;;;4988653;28;20030;-63
2022/01/05 04:41:05;;;;;;;0.50;0.35;;;17.70;61.60;;;;;;4992980;28;20030;-62
2022/01/05 04:43:31;;;;;;;0.50;0.50;;;17.80;61.60;;;;;;4988427;28;20038;-64
2022/01/05 04:45:56;;;;;;;0.45;0.40;;;17.80;61.50;;;;;;4989864;28;20684;-64
2022/01/05 04:48:22;;;;;;;1.65;0.32;;;17.80;61.50;;;;;;4987204;28;20105;-64
2022/01/05 04:50:48;;;;;;;0.68;0.40;;;17.80;61.50;;;;;;4993253;28;20793;-63
2022/01/05 04:53:13;;;;;;;0.55;0.40;;;17.80;61.50;;;;;;4990931;28;20026;-62
2022/01/05 04:55:40;;;;;;;0.30;0.30;;;17.80;61.50;;;;;;4991748;28;20037;-64
2022/01/05 04:58:05;;;;;;;0.57;0.28;;;17.80;61.40;;;;;;4988090;28;20057;-63
2022/01/05 05:00:31;;;;;;;0.70;0.20;;;17.80;61.30;;;;;;4989167;28;20491;-63
2022/01/05 05:02:56;;;;;;;0.45;0.30;;;17.80;61.30;;;;;;4992622;28;20091;-64
2022/01/05 05:05:22;;;;;;;0.40;0.25;;;17.80;61.20;;;;;;4988141;28;20722;-63
2022/01/05 05:07:47;;;;;;;0.32;0.30;;;17.80;61.30;;;;;;4996107;28;20034;-63
2022/01/05 05:10:13;;;;;;;0.40;0.30;;;17.80;61.20;;;;;;4990212;28;20022;-62
2022/01/05 05:12:38;;;;;;;0.45;0.45;;;17.90;61.20;;;;;;4993687;28;20495;-61
2022/01/05 05:15:04;;;;;;;0.40;0.30;;;17.90;61.10;;;;;;4989936;28;20245;-64
2022/01/05 05:17:30;;;;;;;1.25;0.77;;;17.90;61.00;;;;;;4987916;28;20684;-64
2022/01/05 05:19:55;;;;;;;0.20;0.20;;;17.90;61.00;;;;;;4987640;28;20033;-63
2022/01/05 05:22:21;;;;;;;0.38;0.20;;;17.90;60.90;;;;;;4990492;28;20081;-63
2022/01/05 05:24:46;;;;;;;0.75;0.20;;;17.90;60.90;;;;;;4988219;28;20126;-63
2022/01/05 05:27:12;;;;;;;0.35;0.35;;;17.90;60.80;;;;;;4992020;28;20034;-63
2022/01/05 05:29:37;;;;;;;0.50;0.30;;;17.90;60.80;;;;;;4987769;28;20101;-63
2022/01/05 05:32:03;;;;;;;0.52;0.40;;;17.90;60.80;;;;;;4988610;28;20030;-63
2022/01/05 05:34:28;;;;;;;0.85;0.35;;;17.90;60.80;;;;;;4987841;28;20022;-62
2022/01/05 05:36:54;;;;;;;0.22;0.22;;;17.90;60.70;;;;;;4993017;28;20036;-63
2022/01/05 05:39:40;;;;;;;0.20;0.20;;;17.90;60.70;;;;;;4988629;28;20026;-63
2022/01/05 05:42:06;;;;;;;0.40;0.30;;;17.90;60.70;;;;;;4988514;28;20022;-63
2022/01/05 05:44:32;;;;;;;0.45;0.22;;;17.90;60.70;;;;;;4987868;28;20454;-63
2022/01/05 05:46:57;;;;;;;0.20;0.20;;;17.90;60.60;;;;;;4992261;28;20018;-63
2022/01/05 05:49:24;;;;;;;0.52;0.20;;;17.90;60.60;;;;;;4985924;28;20565;-63
2022/01/05 05:51:49;;;;;;;0.45;0.30;;;17.90;60.60;;;;;;4991915;28;20018;-63
2022/01/05 05:54:15;;;;;;;0.25;0.10;;;18.00;60.50;;;;;;4988404;28;20109;-63
2022/01/05 05:56:40;;;;;;;0.30;0.30;;;18.00;60.40;;;;;;4990315;28;20406;-63
2022/01/05 05:59:06;;;;;;;0.30;0.20;;;18.00;60.40;;;;;;4987158;28;20030;-63
2022/01/05 06:01:31;;;;;;;0.38;0.30;;;18.00;60.30;;;;;;4986586;28;20038;-62
2022/01/05 06:03:57;;;;;;;0.40;0.30;;;18.00;60.20;;;;;;4986082;28;20026;-62
2022/01/05 06:06:22;;;;;;;0.20;0.20;;;18.00;60.20;;;;;;4987305;28;20386;-63
2022/01/05 06:08:47;;;;;;;0.43;0.25;;;18.00;60.00;;;;;;4988315;28;20343;-60
2022/01/05 06:11:13;;;;;;;0.45;0.20;;;18.10;59.90;;;;;;4985948;28;20030;-63
2022/01/05 06:13:38;;;;;;;5.15;2.88;;;18.10;59.90;;;;;;4990769;28;20507;-63
2022/01/05 06:16:04;;;;;;;10.77;6.53;;;18.10;59.90;;;;;;4980810;28;20038;-59
2022/01/05 06:18:29;;;;;;;11.45;5.60;;;18.10;59.90;;;;;;4980719;28;20076;-61
2022/01/05 06:20:55;;;;;;;9.95;5.53;;;18.10;60.00;;;;;;4985051;28;20065;-62
2022/01/05 06:23:20;;;;;;;11.55;5.97;;;18.10;60.00;;;;;;4988917;28;20027;-63
2022/01/05 06:25:46;;;;;;;10.35;5.65;;;18.10;60.00;;;;;;4985966;28;20442;-63
2022/01/05 06:28:12;;;;;;;9.32;5.20;;;18.10;60.20;;;;;;4990298;28;20031;-63
2022/01/05 06:30:38;;;;;;;7.40;4.25;;;18.10;60.30;;;;;;4968767;28;20022;-62
2022/01/05 06:33:04;;;;;;;7.93;4.88;;;18.10;60.00;;;;;;4987150;28;20030;-62
2022/01/05 06:35:29;;;;;;;6.50;4.20;;;18.10;60.10;;;;;;4986771;28;20030;-62
2022/01/05 06:37:55;;;;;;;6.97;3.53;;;18.10;60.20;;;;;;4989691;28;20423;-61
2022/01/05 06:40:20;;;;;;;4.25;3.15;;;18.20;60.30;;;;;;4987461;28;20045;-63
2022/01/05 06:42:52;;;;;;;;;;;18.10;60.20;;;;;;5029713;27;20446;-56
2022/01/05 06:45:18;;;;;;;5.80;3.33;;;18.10;60.60;;;;;;5037288;28;19913;-55
2022/01/05 06:47:43;;;;;;;7.45;3.25;;;18.10;60.90;;;;;;5030023;28;20083;-58
2022/01/05 06:50:09;;;;;;;7.03;3.72;;;18.00;60.90;;;;;;5018821;28;20372;-58
2022/01/05 06:52:35;;;;;;;5.03;2.85;;;18.00;60.90;;;;;;5018811;28;20138;-58
2022/01/05 06:55:00;;;;;;;9.40;3.00;;;18.00;60.90;;;;;;5017956;28;20034;-56
2022/01/05 06:57:26;;;;;;;4.40;2.60;;;18.10;61.00;;;;;;5018344;28;20056;-55
2022/01/05 06:59:51;;;;;;;7.20;3.30;;;18.00;61.00;;;;;;5018219;28;20022;-57
2022/01/05 07:02:17;;;;;;;11.38;3.10;;;18.10;61.00;;;;;;5018576;28;20064;-58
2022/01/05 07:04:42;;;;;;;5.95;2.10;;;18.00;60.90;;;;;;5018644;28;20336;-57
2022/01/05 07:07:08;;;;;;;6.68;2.20;;;18.10;61.00;;;;;;5016400;28;20449;-58
2022/01/05 07:09:33;;;;;;;3.75;2.30;;;18.00;61.50;;;;;;5021754;28;20099;-57
2022/01/05 07:11:59;;;;;;;3.78;2.22;;;18.00;60.80;;;;;;5021915;28;20044;-58
2022/01/05 07:14:25;;;;;;;4.72;2.35;;;18.10;60.80;;;;;;5018698;28;20173;-58
2022/01/05 07:16:51;;;;;;;3.15;2.22;;;18.00;60.60;;;;;;5011823;28;20034;-58
2022/01/05 07:19:17;;;;;;;4.03;1.70;;;18.10;60.90;;;;;;5015764;28;20053;-59
2022/01/05 07:21:43;;;;;;;4.35;2.03;;;18.10;60.90;;;;;;5018692;28;20534;-59
2022/01/05 07:24:12;;;;;;;2.85;1.40;;;18.20;61.00;;;;;;5018673;28;20061;-58
2022/01/05 07:26:38;;;;;;;2.72;1.58;;;18.10;61.00;;;;;;5017923;28;20030;-57
2022/01/05 07:29:04;;;;;;;3.95;1.50;;;18.20;61.00;;;;;;5013984;28;20026;-58
2022/01/05 07:31:29;;;;;;;3.97;1.92;;;18.20;61.10;;;;;;5019561;28;20672;-57
2022/01/05 07:33:55;;;;;;;2.50;1.50;;;18.20;61.10;;;;;;5018329;28;22110;-57
2022/01/05 07:36:20;;;;;;;4.63;1.42;;;18.20;61.00;;;;;;5019360;28;20037;-59
2022/01/05 07:38:46;;;;;;;6.10;1.55;;;18.20;60.80;;;;;;5017886;28;20378;-56
2022/01/05 07:41:11;;;;;;;2.88;1.63;;;18.20;60.70;;;;;;5017993;28;20110;-56
2022/01/05 07:43:37;;;;;;;2.65;1.30;;;18.20;60.50;;;;;;5017048;28;20501;-53
2022/01/05 07:46:03;;;;;;;3.70;2.10;;;18.20;60.40;;;;;;5019108;28;20444;-56
2022/01/05 07:48:28;;;;;;;3.72;2.05;;;18.30;60.30;;;;;;5017045;28;20590;-56
2022/01/05 07:50:54;;;;;;;5.18;1.40;;;18.20;60.20;;;;;;5018572;28;20165;-55
2022/01/05 07:53:20;;;;;;;2.22;1.23;;;18.20;60.10;;;;;;5008789;28;20026;-54
2022/01/05 07:55:45;;;;;;;2.53;1.42;;;18.20;60.00;;;;;;5005849;28;20502;-58
2022/01/05 07:58:11;;;;;;;2.65;1.40;;;18.20;60.00;;;;;;5004006;28;20038;-57
2022/01/05 08:00:36;;;;;;;1.92;1.20;;;18.20;59.90;;;;;;5002254;28;20026;-55
2022/01/05 08:03:02;;;;;;;3.50;1.38;;;18.20;59.80;;;;;;5004146;28;20033;-58
2022/01/05 08:05:27;;;;;;;2.25;1.00;;;18.20;59.70;;;;;;5006541;28;20030;-58
2022/01/05 08:07:53;;;;;;;2.47;1.10;;;18.20;59.70;;;;;;5005681;28;20630;-58
2022/01/05 08:10:18;;;;;;;2.70;1.08;;;18.20;59.60;;;;;;5004988;28;20046;-51
2022/01/05 08:12:44;;;;;;;4.35;1.30;;;18.20;59.60;;;;;;5004449;28;20655;-57
2022/01/05 08:15:10;;;;;;;3.25;1.20;;;18.10;59.50;;;;;;5005306;28;20032;-57
2022/01/05 08:17:36;;;;;;;4.38;1.23;;;18.10;59.50;;;;;;5001885;28;20026;-56
2022/01/05 08:20:03;;;;;;;2.75;0.95;;;18.10;59.50;;;;;;5002960;28;20030;-55
2022/01/05 08:22:28;;;;;;;1.80;1.35;;;18.10;59.50;;;;;;5002758;28;20107;-52
2022/01/05 08:24:54;;;;;;;0.98;0.70;;;18.00;59.40;;;;;;5003385;28;20042;-56
2022/01/05 08:27:19;;;;;;;1.80;1.02;;;18.00;59.80;;;;;;5001577;28;20088;-55
2022/01/05 08:29:45;;;;;;;4.18;0.90;;;18.00;60.30;;;;;;5000394;28;20419;-57
2022/01/05 08:32:10;;;;;;;2.72;1.40;;;17.90;60.50;;;;;;5005449;28;20038;-58
2022/01/05 08:34:35;;;;;;;1.42;0.88;;;17.90;60.60;;;;;;5004705;28;20029;-57
2022/01/05 08:37:01;;;;;;;3.67;0.80;;;17.90;60.50;;;;;;5004845;28;20536;-57
2022/01/05 08:39:27;;;;;;;3.35;1.17;;;17.90;60.40;;;;;;5004475;28;20026;-57
2022/01/05 08:41:52;;;;;;;2.85;0.93;;;17.90;60.40;;;;;;5004291;28;20037;-59
2022/01/05 08:44:18;;;;;;;1.80;1.13;;;17.80;60.30;;;;;;5003704;28;20026;-57
2022/01/05 08:46:43;;;;;;;1.52;0.98;;;17.80;60.30;;;;;;5003762;28;20072;-58
2022/01/05 08:49:10;;;;;;;1.38;0.70;;;17.80;60.20;;;;;;5001488;28;20026;-54
2022/01/05 08:51:37;;;;;;;4.30;1.13;;;17.80;60.30;;;;;;5003905;28;20034;-59
2022/01/05 08:54:03;;;;;;;2.00;0.80;;;17.80;60.40;;;;;;5003045;28;20026;-57
2022/01/05 08:56:28;;;;;;;5.28;1.25;;;17.80;60.60;;;;;;5003143;28;20395;-57
2022/01/05 08:58:54;;;;;;;25.08;4.63;;;17.80;61.00;;;;;;5003256;28;20061;-57
2022/01/05 09:01:20;;;;;;;16.15;4.22;;;17.70;61.30;;;;;;5004410;28;20056;-53
2022/01/05 09:03:45;;;;;;;18.65;5.00;;;17.70;61.30;;;;;;5003414;28;20042;-57
2022/01/05 09:06:11;;;;;;;24.65;5.43;;;17.80;61.20;;;;;;5002463;28;20049;-57
2022/01/05 09:08:38;;;;;;;18.20;4.85;;;17.80;61.30;;;;;;5002470;28;20515;-57
2022/01/05 09:11:03;;;;;;;20.23;4.93;;;17.70;61.30;;;;;;5003466;28;20507;-54
2022/01/05 09:13:29;;;;;;;15.93;4.50;;;17.80;61.50;;;;;;5002697;28;20034;-58
2022/01/05 09:15:54;;;;;;;20.33;4.03;;;17.80;61.40;;;;;;5004513;28;20460;-58
2022/01/05 09:18:20;;;;;;;16.35;4.47;;;17.80;61.40;;;;;;5002948;28;20042;-58
2022/01/05 09:20:46;;;;;;;20.17;4.43;;;17.80;61.40;;;;;;5002248;28;20038;-56
2022/01/05 09:23:12;;;;;;;14.18;3.90;;;17.70;61.30;;;;;;5001601;28;20053;-57
2022/01/05 09:25:37;;;;;;;13.65;3.75;;;17.70;61.30;;;;;;5003754;28;20026;-55
2022/01/05 09:28:03;;;;;;;15.73;4.28;;;17.70;61.30;;;;;;5003154;28;20022;-56
2022/01/05 09:30:29;;;;;;;10.82;3.38;;;17.70;61.20;;;;;;5002838;28;20030;-54
2022/01/05 09:32:54;;;;;;;16.30;3.50;;;17.70;61.10;;;;;;5003968;28;20030;-57
2022/01/05 09:35:22;;;;;;;11.32;3.00;;;17.70;61.00;;;;;;5004377;28;20055;-54
2022/01/05 09:38:06;;;;;;;11.82;2.92;;;17.70;61.00;;;;;;5003864;28;20612;-58
2022/01/05 09:43:16;;;;;;;11.75;2.97;;;17.70;60.80;;;;;;5002003;28;20042;-55
2022/01/05 09:45:50;;;;;;;11.77;3.47;;;17.70;60.80;;;;;;5003878;28;20477;-57
2022/01/05 09:48:40;;;;;;;9.10;2.58;;;17.70;60.80;;;;;;4987304;28;20088;-53
2022/01/05 09:51:10;;;;;;;8.95;2.53;;;17.70;60.70;;;;;;4979298;23;20466;-53
2022/01/05 09:53:35;;;;;;;11.70;2.60;;;17.70;60.60;;;;;;4944008;28;20058;-49
2022/01/05 09:56:01;;;;;;;7.60;2.30;;;17.70;60.60;;;;;;4965243;28;20054;-49
2022/01/05 09:58:26;;;;;;;7.00;2.70;;;17.70;60.60;;;;;;4961805;28;20515;-53
2022/01/05 10:00:52;;;;;;;11.55;2.53;;;17.70;60.50;;;;;;4962208;28;20092;-50
2022/01/05 10:03:18;;;;;;;9.77;2.78;;;17.70;60.50;;;;;;4961740;28;20773;-52
2022/01/05 10:05:43;;;;;;;8.57;2.60;;;17.70;60.50;;;;;;4962719;28;20034;-57
2022/01/05 10:08:09;;;;;;;7.63;2.10;;;17.70;60.40;;;;;;4962209;28;20416;-58
2022/01/05 10:10:35;;;;;;;5.88;2.17;;;17.70;60.40;;;;;;4962207;28;20034;-54
2022/01/05 10:13:00;;;;;;;9.63;2.35;;;17.70;60.30;;;;;;4962647;28;20404;-57
2022/01/05 10:15:26;;;;;;;12.80;3.95;;;17.70;60.30;;;;;;4962768;28;20726;-54
2022/01/05 10:18:10;;;;;;;5.80;2.53;;;17.60;60.20;;;;;;4967535;28;20605;-52
2022/01/05 10:20:35;;;;;;;6.47;2.05;;;17.70;60.90;;;;;;4945386;28;20098;-51
2022/01/05 10:23:01;;;;;;;5.95;1.95;;;17.70;60.20;;;;;;4964363;28;20037;-53
2022/01/05 10:25:27;;;;;;;7.60;2.20;;;17.70;60.10;;;;;;4964682;28;20023;-55
2022/01/05 10:27:56;;;;;;;7.30;2.15;;;17.70;60.00;;;;;;4963763;28;20121;-50
2022/01/05 10:30:32;;;;;;;4.93;2.05;;;17.60;60.50;;;;;;4961821;28;20036;-54
2022/01/05 10:32:57;;;;;;;9.63;2.20;;;17.60;59.80;;;;;;4947209;28;20500;-55
2022/01/05 10:35:27;;;;;;;4.32;1.73;;;17.60;59.70;;;;;;4962484;28;20110;-60
2022/01/05 10:38:04;;;;;;;7.70;1.77;;;17.60;59.70;;;;;;4966368;28;20397;-51
2022/01/05 10:40:32;;;;;;;6.72;2.10;;;17.70;59.60;;;;;;4954334;28;20381;-49
2022/01/05 10:42:57;;;;;;;4.43;2.13;;;17.60;59.60;;;;;;4963032;28;20251;-59
2022/01/05 10:45:48;;;;;;;5.03;1.90;;;17.70;59.60;;;;;;4961861;28;20054;-52
2022/01/05 10:48:18;;;;;;;5.90;2.00;;;17.60;59.60;;;;;;4961850;28;20054;-60
2022/01/05 10:50:44;;;;;;;5.10;2.28;;;17.60;59.60;;;;;;4945947;28;20042;-49
2022/01/05 10:53:13;;;;;;;5.68;1.65;;;17.60;59.60;;;;;;4960301;28;20038;-57
2022/01/05 10:55:43;;;;;;;4.07;1.60;;;17.60;59.60;;;;;;4960811;28;20035;-55
2022/01/05 10:58:15;;;;;;;5.53;1.70;;;17.60;59.60;;;;;;4963330;28;20508;-53
2022/01/05 11:00:52;;;;;;;5.63;1.90;;;17.60;59.60;;;;;;4962396;28;20031;-59
2022/01/05 11:03:24;;;;;;;5.68;1.75;;;17.60;59.60;;;;;;4964308;28;20030;-56
2022/01/05 11:06:02;;;;;;;4.20;1.70;;;17.60;59.60;;;;;;4963138;28;20031;-51
2022/01/05 11:08:27;;;;;;;7.82;1.63;;;17.60;59.50;;;;;;4960955;28;20031;-59
2022/01/05 11:10:52;;;;;;;5.43;1.67;;;17.60;59.70;;;;;;4961899;28;20089;-59
2022/01/05 11:13:18;;;;;;;5.93;1.67;;;17.70;60.60;;;;;;4947930;28;20023;-61
2022/01/05 11:15:43;;;;;;;6.60;1.42;;;17.70;60.80;;;;;;4961282;28;20050;-61
2022/01/05 11:18:19;;;;;;;6.57;1.88;;;17.70;60.60;;;;;;4962933;28;20062;-52
2022/01/05 11:20:50;;;;;;;5.15;1.77;;;17.70;60.40;;;;;;4960380;28;20034;-58
2022/01/05 11:23:16;;;;;;;3.10;1.13;;;17.70;60.30;;;;;;4946272;28;20031;-61
2022/01/05 11:25:42;;;;;;;6.07;1.42;;;17.80;60.60;;;;;;4963306;28;20098;-52
2022/01/05 11:28:08;;;;;;;9.48;1.85;;;17.70;60.80;;;;;;4961551;28;20031;-54
2022/01/05 11:30:34;;;;;;;2.25;1.60;;;17.80;60.80;;;;;;4965683;28;20530;-57
2022/01/05 11:32:59;;;;;;;3.15;1.30;;;17.80;60.70;;;;;;4973721;28;20488;-58
2022/01/05 11:35:25;;;;;;;7.78;1.83;;;17.80;60.70;;;;;;4962780;28;20030;-56
2022/01/05 11:37:50;;;;;;;5.13;1.30;;;17.80;60.50;;;;;;4968938;28;20062;-50
2022/01/05 11:40:16;;;;;;;6.38;1.42;;;17.80;60.40;;;;;;4947196;28;20308;-50
2022/01/05 11:42:42;;;;;;;9.00;1.88;;;17.80;60.40;;;;;;4965973;28;20047;-54
2022/01/05 11:45:08;;;;;;;6.25;1.50;;;17.80;60.40;;;;;;4966817;28;20034;-59
2022/01/05 11:47:38;;;;;;;5.20;1.48;;;17.80;60.40;;;;;;4967399;28;20558;-63
2022/01/05 11:50:23;;;;;;;6.53;2.90;;;17.80;60.40;;;;;;4944987;28;20047;-57
2022/01/05 11:52:59;;;;;;;3.97;1.37;;;17.80;60.50;;;;;;4964781;28;20039;-60
2022/01/05 11:55:28;;;;;;;6.07;1.25;;;17.80;60.70;;;;;;4965328;28;20492;-51
2022/01/05 11:58:13;;;;;;;2.60;1.13;;;17.90;60.80;;;;;;4958359;28;20035;-59
2022/01/05 12:00:39;;;;;;;5.53;1.38;;;17.90;60.90;;;;;;4965254;28;20062;-50
2022/01/05 12:03:04;;;;;;;3.03;1.42;;;17.90;60.90;;;;;;4969656;28;20480;-51
2022/01/05 12:06:05;;;;;;;4.85;1.08;;;17.90;60.90;;;;;;4965888;28;20035;-59
2022/01/05 12:08:40;;;;;;;2.30;1.00;;;17.90;60.90;;;;;;4961962;28;20027;-50
2022/01/05 12:11:05;;;;;;;3.43;1.20;;;17.90;60.80;;;;;;4962991;28;20041;-59
2022/01/05 12:13:37;;;;;;;2.85;1.55;;;17.90;60.80;;;;;;4967994;28;20259;-56
2022/01/05 12:16:04;;;;;;;5.78;1.40;;;17.90;60.60;;;;;;4966143;28;21448;-54
2022/01/05 12:18:30;;;;;;;5.88;1.52;;;17.90;60.60;;;;;;4969330;28;20046;-54
2022/01/05 12:20:57;;;;;;;7.13;1.35;;;17.90;60.60;;;;;;4966077;28;20117;-58
2022/01/05 12:23:25;;;;;;;5.18;1.35;;;17.90;60.60;;;;;;4964956;28;20015;-63
2022/01/05 12:26:11;;;;;;;8.80;3.67;;;17.90;60.60;;;;;;4950420;28;20094;-62
2022/01/05 12:28:51;;;;;;;75.72;33.72;;;17.90;60.60;;;;;;4962376;28;20038;-60
2022/01/05 12:31:16;;;;;;;102.07;47.15;;;17.90;60.80;;;;;;4960867;28;20674;-59
2022/01/05 12:33:42;;;;;;;125.43;55.55;;;18.00;61.30;;;;;;4933781;28;20043;-60
2022/01/05 12:36:08;;;;;;;125.82;60.47;;;17.90;61.80;;;;;;4965412;28;20031;-52
2022/01/05 12:38:38;;;;;;;144.95;69.65;;;18.00;62.40;;;;;;4952641;28;20120;-55
2022/01/05 12:41:22;;;;;;;142.40;68.63;;;18.00;62.80;;;;;;4953761;28;20511;-55
2022/01/05 12:43:47;;;;;;;119.65;61.28;;;18.00;63.20;;;;;;4960869;28;20455;-59
2022/01/05 12:46:14;;;;;;;119.00;59.45;;;18.00;63.30;;;;;;4964409;28;20106;-55
2022/01/05 12:48:43;;;;;;;109.95;58.72;;;18.00;63.10;;;;;;4962221;28;20661;-54